createdAt,value
2023-01-26T00:00:00.203Z,1018.59
2023-01-26T00:01:00.156Z,1018.25
2023-01-26T00:02:00.116Z,1018.55
2023-01-26T00:03:00.106Z,1018.67
2023-01-26T00:04:00.110Z,1018.70
2023-01-26T00:04:59.971Z,1018.60
2023-01-26T00:05:59.923Z,1018.30
2023-01-26T00:06:59.877Z,1018.57
2023-01-26T00:07:59.829Z,1018.57
2023-01-26T00:08:59.791Z,1018.40
2023-01-26T00:09:59.745Z,1018.58
2023-01-26T00:10:59.683Z,1018.55
2023-01-26T00:11:59.650Z,1018.22
2023-01-26T00:12:59.595Z,1018.20
2023-01-26T00:13:59.546Z,1018.53
2023-01-26T00:14:59.503Z,1018.57
2023-01-26T00:15:59.477Z,1018.65
2023-01-26T00:16:59.403Z,1018.26
2023-01-26T00:17:59.370Z,1018.62
2023-01-26T00:18:59.312Z,1018.67
2023-01-26T00:19:59.301Z,1018.28
2023-01-26T00:20:59.219Z,1018.29
2023-01-26T00:21:59.171Z,1018.51
2023-01-26T00:22:59.118Z,1018.13
2023-01-26T00:23:59.145Z,1018.11
2023-01-26T00:24:59.031Z,1018.10
2023-01-26T00:25:58.984Z,1018.26
2023-01-26T00:26:58.929Z,1018.23
2023-01-26T00:27:58.887Z,1017.88
2023-01-26T00:28:58.837Z,1017.84
2023-01-26T00:29:58.801Z,1018.13
2023-01-26T00:30:58.749Z,1017.78
2023-01-26T00:31:58.701Z,1018.16
2023-01-26T00:32:58.646Z,1018.20
2023-01-26T00:33:58.605Z,1018.16
2023-01-26T00:34:58.554Z,1017.96
2023-01-26T00:35:58.536Z,1017.88
2023-01-26T00:36:58.461Z,1017.80
2023-01-26T00:37:58.435Z,1017.79
2023-01-26T00:38:58.368Z,1018.12
2023-01-26T00:39:58.322Z,1017.89
2023-01-26T00:40:58.275Z,1017.81
2023-01-26T00:41:58.249Z,1017.99
2023-01-26T00:42:58.181Z,1017.63
2023-01-26T00:43:58.135Z,1017.58
2023-01-26T00:44:58.085Z,1017.82
2023-01-26T00:45:58.039Z,1017.90
2023-01-26T00:46:58.001Z,1017.71
2023-01-26T00:47:57.947Z,1017.89
2023-01-26T00:48:57.897Z,1017.97
2023-01-26T00:49:57.851Z,1017.91
2023-01-26T00:50:57.801Z,1017.71
2023-01-26T00:51:57.758Z,1017.92
2023-01-26T00:52:57.715Z,1017.78
2023-01-26T00:53:57.681Z,1017.50
2023-01-26T00:54:57.611Z,1017.75
2023-01-26T00:55:57.570Z,1017.44
2023-01-26T00:56:57.519Z,1017.62
2023-01-26T00:57:57.473Z,1017.29
2023-01-26T00:58:57.422Z,1017.21
2023-01-26T00:59:57.408Z,1017.12
2023-01-26T01:00:57.385Z,1017.43
2023-01-26T01:01:57.328Z,1017.13
2023-01-26T01:02:57.235Z,1017.42
2023-01-26T01:03:57.199Z,1017.16
2023-01-26T01:04:57.143Z,1017.57
2023-01-26T01:05:57.096Z,1017.43
2023-01-26T01:06:57.058Z,1017.72
2023-01-26T01:07:57.005Z,1017.73
2023-01-26T01:08:56.966Z,1017.73
2023-01-26T01:09:56.913Z,1017.76
2023-01-26T01:10:56.870Z,1017.45
2023-01-26T01:11:56.811Z,1017.77
2023-01-26T01:12:56.949Z,1017.40
2023-01-26T01:13:56.730Z,1017.62
2023-01-26T01:14:56.668Z,1017.35
2023-01-26T01:15:56.659Z,1017.35
2023-01-26T01:16:56.579Z,1017.31
2023-01-26T01:17:56.535Z,1017.21
2023-01-26T01:18:56.482Z,1017.06
2023-01-26T01:19:56.459Z,1016.95
2023-01-26T01:20:56.395Z,1016.85
2023-01-26T01:21:56.339Z,1016.82
2023-01-26T01:22:56.291Z,1016.85
2023-01-26T01:23:56.274Z,1017.34
2023-01-26T01:24:56.195Z,1017.50
2023-01-26T01:25:56.158Z,1017.48
2023-01-26T01:26:56.110Z,1017.23
2023-01-26T01:27:56.079Z,1017.25
2023-01-26T01:28:56.011Z,1017.57
2023-01-26T01:29:55.968Z,1017.20
2023-01-26T01:30:55.927Z,1017.14
2023-01-26T01:31:55.904Z,1017.07
2023-01-26T01:32:55.819Z,1016.99
2023-01-26T01:33:55.785Z,1016.92
2023-01-26T01:34:55.720Z,1016.88
2023-01-26T01:35:55.689Z,1016.83
2023-01-26T01:36:55.631Z,1016.81
2023-01-26T01:37:55.582Z,1016.82
2023-01-26T01:38:55.531Z,1016.89
2023-01-26T01:39:55.489Z,1016.84
2023-01-26T01:40:55.441Z,1016.80
2023-01-26T01:41:55.402Z,1016.73
2023-01-26T01:42:55.342Z,1016.70
2023-01-26T01:43:55.299Z,1016.91
2023-01-26T01:44:55.254Z,1016.65
2023-01-26T01:45:55.257Z,1016.66
2023-01-26T01:46:55.202Z,1016.86
2023-01-26T01:47:55.106Z,1016.94
2023-01-26T01:48:55.062Z,1017.41
2023-01-26T01:49:55.022Z,1017.13
2023-01-26T01:50:54.970Z,1017.52
2023-01-26T01:51:54.942Z,1017.54
2023-01-26T01:52:54.880Z,1017.27
2023-01-26T01:53:54.828Z,1017.52
2023-01-26T01:54:54.791Z,1017.33
2023-01-26T01:55:54.729Z,1017.13
2023-01-26T01:56:54.685Z,1017.06
2023-01-26T01:57:54.650Z,1016.93
2023-01-26T01:58:54.587Z,1016.80
2023-01-26T01:59:54.549Z,1016.72
2023-01-26T02:00:54.512Z,1016.73
2023-01-26T02:01:54.470Z,1017.16
2023-01-26T02:02:54.400Z,1016.93
2023-01-26T02:03:54.371Z,1016.89
2023-01-26T02:04:54.304Z,1016.86
2023-01-26T02:05:54.261Z,1016.84
2023-01-26T02:06:54.216Z,1016.83
2023-01-26T02:07:54.163Z,1016.74
2023-01-26T02:08:54.144Z,1016.69
2023-01-26T02:09:54.070Z,1016.76
2023-01-26T02:10:54.024Z,1016.67
2023-01-26T02:11:53.972Z,1016.60
2023-01-26T02:12:53.923Z,1016.88
2023-01-26T02:13:53.886Z,1016.77
2023-01-26T02:14:53.851Z,1017.22
2023-01-26T02:15:53.821Z,1016.77
2023-01-26T02:16:53.741Z,1016.80
2023-01-26T02:17:53.700Z,1016.80
2023-01-26T02:18:53.648Z,1016.65
2023-01-26T02:19:53.595Z,1016.92
2023-01-26T02:20:53.559Z,1016.70
2023-01-26T02:21:53.502Z,1017.07
2023-01-26T02:22:53.471Z,1017.14
2023-01-26T02:23:53.446Z,1017.21
2023-01-26T02:24:53.358Z,1017.14
2023-01-26T02:25:53.312Z,1017.24
2023-01-26T02:26:53.278Z,1016.92
2023-01-26T02:27:53.219Z,1016.74
2023-01-26T02:28:53.182Z,1017.04
2023-01-26T02:29:53.131Z,1017.21
2023-01-26T02:30:53.120Z,1016.94
2023-01-26T02:31:53.126Z,1017.23
2023-01-26T02:32:53.017Z,1016.92
2023-01-26T02:33:52.935Z,1016.80
2023-01-26T02:34:52.954Z,1017.09
2023-01-26T02:35:52.843Z,1017.16
2023-01-26T02:36:52.812Z,1017.17
2023-01-26T02:37:52.745Z,1016.79
2023-01-26T02:38:52.697Z,1016.76
2023-01-26T02:39:52.663Z,1016.61
2023-01-26T02:40:52.606Z,1016.54
2023-01-26T02:41:52.555Z,1016.48
2023-01-26T02:42:52.538Z,1016.43
2023-01-26T02:43:52.460Z,1016.45
2023-01-26T02:44:52.419Z,1016.47
2023-01-26T02:45:52.369Z,1016.47
2023-01-26T02:46:52.337Z,1016.59
2023-01-26T02:47:52.276Z,1016.54
2023-01-26T02:48:52.243Z,1016.94
2023-01-26T02:49:52.178Z,1017.02
2023-01-26T02:50:52.140Z,1016.74
2023-01-26T02:51:52.101Z,1016.66
2023-01-26T02:52:52.048Z,1016.56
2023-01-26T02:53:51.989Z,1016.93
2023-01-26T02:54:51.966Z,1016.57
2023-01-26T02:55:51.895Z,1016.52
2023-01-26T02:56:51.854Z,1016.52
2023-01-26T02:57:51.806Z,1016.44
2023-01-26T02:58:51.758Z,1016.46
2023-01-26T02:59:51.721Z,1016.46
2023-01-26T03:00:51.729Z,1016.57
2023-01-26T03:01:51.672Z,1016.53
2023-01-26T03:02:51.573Z,1016.81
2023-01-26T03:03:51.532Z,1016.84
2023-01-26T03:04:51.482Z,1016.55
2023-01-26T03:05:51.439Z,1016.54
2023-01-26T03:06:51.385Z,1016.51
2023-01-26T03:07:51.334Z,1016.78
2023-01-26T03:08:51.289Z,1016.56
2023-01-26T03:09:51.240Z,1016.41
2023-01-26T03:10:51.194Z,1016.45
2023-01-26T03:11:51.155Z,1016.25
2023-01-26T03:12:51.119Z,1016.39
2023-01-26T03:13:51.053Z,1016.31
2023-01-26T03:14:51.003Z,1016.22
2023-01-26T03:15:51.001Z,1016.33
2023-01-26T03:16:50.911Z,1016.19
2023-01-26T03:17:50.864Z,1016.10
2023-01-26T03:18:50.830Z,1016.59
2023-01-26T03:19:50.762Z,1016.34
2023-01-26T03:20:50.724Z,1016.26
2023-01-26T03:21:50.668Z,1016.26
2023-01-26T03:22:50.625Z,1016.30
2023-01-26T03:23:50.613Z,1016.23
2023-01-26T03:24:50.556Z,1016.20
2023-01-26T03:25:50.484Z,1016.21
2023-01-26T03:26:50.436Z,1016.19
2023-01-26T03:27:50.393Z,1016.69
2023-01-26T03:28:50.347Z,1016.34
2023-01-26T03:29:50.312Z,1016.35
2023-01-26T03:30:50.276Z,1016.26
2023-01-26T03:31:50.197Z,1016.56
2023-01-26T03:32:50.162Z,1016.26
2023-01-26T03:33:50.112Z,1016.54
2023-01-26T03:34:50.069Z,1016.29
2023-01-26T03:35:50.027Z,1016.42
2023-01-26T03:36:49.967Z,1016.59
2023-01-26T03:37:49.921Z,1016.47
2023-01-26T03:38:49.883Z,1016.39
2023-01-26T03:39:49.820Z,1016.76
2023-01-26T03:40:49.778Z,1016.80
2023-01-26T03:41:49.745Z,1016.81
2023-01-26T03:42:49.680Z,1016.51
2023-01-26T03:43:49.634Z,1016.45
2023-01-26T03:44:49.595Z,1016.47
2023-01-26T03:45:49.549Z,1016.69
2023-01-26T03:46:49.607Z,1016.80
2023-01-26T03:47:49.442Z,1016.87
2023-01-26T03:48:49.398Z,1016.83
2023-01-26T03:49:49.350Z,1016.86
2023-01-26T03:50:49.319Z,1016.85
2023-01-26T03:51:49.255Z,1016.39
2023-01-26T03:52:49.211Z,1016.24
2023-01-26T03:53:49.165Z,1016.11
2023-01-26T03:54:49.119Z,1016.01
2023-01-26T03:55:49.069Z,1015.96
2023-01-26T03:56:49.048Z,1015.94
2023-01-26T03:57:48.981Z,1015.95
2023-01-26T03:58:48.930Z,1015.95
2023-01-26T03:59:48.878Z,1015.95
2023-01-26T04:00:48.876Z,1015.90
2023-01-26T04:01:48.801Z,1015.92
2023-01-26T04:02:48.758Z,1015.94
2023-01-26T04:03:48.689Z,1015.91
2023-01-26T04:04:48.649Z,1015.86
2023-01-26T04:05:48.622Z,1015.86
2023-01-26T04:06:48.549Z,1015.82
2023-01-26T04:07:48.502Z,1015.85
2023-01-26T04:08:48.490Z,1015.87
2023-01-26T04:09:48.412Z,1015.86
2023-01-26T04:10:48.364Z,1015.85
2023-01-26T04:11:48.312Z,1015.84
2023-01-26T04:12:48.807Z,1015.85
2023-01-26T04:13:48.229Z,1015.91
2023-01-26T04:14:49.317Z,1016.10
2023-01-26T04:15:48.128Z,1015.93
2023-01-26T04:16:48.088Z,1015.96
2023-01-26T04:17:48.031Z,1016.31
2023-01-26T04:18:47.995Z,1016.02
2023-01-26T04:19:47.947Z,1016.00
2023-01-26T04:20:47.893Z,1015.97
2023-01-26T04:21:47.844Z,1016.42
2023-01-26T04:22:47.823Z,1016.17
2023-01-26T04:23:47.782Z,1016.07
2023-01-26T04:24:47.712Z,1016.00
2023-01-26T04:25:47.672Z,1016.00
2023-01-26T04:26:47.609Z,1015.96
2023-01-26T04:27:47.566Z,1015.94
2023-01-26T04:28:47.519Z,1015.92
2023-01-26T04:29:47.468Z,1016.18
2023-01-26T04:30:47.512Z,1015.94
2023-01-26T04:31:47.446Z,1015.87
2023-01-26T04:32:47.353Z,1015.81
2023-01-26T04:33:47.288Z,1015.76
2023-01-26T04:34:47.245Z,1015.96
2023-01-26T04:35:47.186Z,1016.02
2023-01-26T04:36:47.179Z,1015.98
2023-01-26T04:37:47.087Z,1015.88
2023-01-26T04:38:47.056Z,1015.87
2023-01-26T04:39:47.000Z,1015.81
2023-01-26T04:40:46.960Z,1015.76
2023-01-26T04:41:46.911Z,1015.80
2023-01-26T04:42:46.872Z,1015.72
2023-01-26T04:43:46.806Z,1015.78
2023-01-26T04:44:46.764Z,1016.09
2023-01-26T04:45:46.760Z,1015.98
2023-01-26T04:46:56.081Z,1016.40
2023-01-26T04:47:46.619Z,1016.44
2023-01-26T04:48:46.573Z,1016.10
2023-01-26T04:49:46.539Z,1016.17
2023-01-26T04:50:46.484Z,1016.10
2023-01-26T04:51:46.443Z,1015.95
2023-01-26T04:52:46.387Z,1016.01
2023-01-26T04:53:46.359Z,1016.29
2023-01-26T04:54:46.291Z,1016.01
2023-01-26T04:55:46.253Z,1015.95
2023-01-26T04:56:46.196Z,1015.84
2023-01-26T04:57:46.145Z,1016.30
2023-01-26T04:58:46.102Z,1016.48
2023-01-26T04:59:46.067Z,1016.51
2023-01-26T05:00:46.033Z,1016.17
2023-01-26T05:01:45.960Z,1016.04
2023-01-26T05:02:45.919Z,1016.05
2023-01-26T05:03:45.866Z,1016.00
2023-01-26T05:04:45.822Z,1015.95
2023-01-26T05:05:45.790Z,1015.86
2023-01-26T05:06:45.743Z,1015.80
2023-01-26T05:07:45.679Z,1015.82
2023-01-26T05:08:45.634Z,1015.83
2023-01-26T05:09:45.585Z,1016.09
2023-01-26T05:10:45.541Z,1015.75
2023-01-26T05:11:45.492Z,1015.74
2023-01-26T05:12:45.459Z,1015.73
2023-01-26T05:13:45.397Z,1015.73
2023-01-26T05:14:45.354Z,1015.68
2023-01-26T05:15:45.308Z,1015.64
2023-01-26T05:16:45.273Z,1015.67
2023-01-26T05:17:45.211Z,1015.61
2023-01-26T05:18:45.189Z,1015.68
2023-01-26T05:19:45.123Z,1015.65
2023-01-26T05:20:45.084Z,1015.74
2023-01-26T05:21:45.021Z,1016.02
2023-01-26T05:22:44.992Z,1015.81
2023-01-26T05:23:44.928Z,1015.76
2023-01-26T05:24:44.909Z,1015.68
2023-01-26T05:25:44.836Z,1015.69
2023-01-26T05:26:44.798Z,1015.70
2023-01-26T05:27:44.739Z,1015.69
2023-01-26T05:28:44.696Z,1015.70
2023-01-26T05:29:44.666Z,1015.76
2023-01-26T05:30:44.628Z,1015.75
2023-01-26T05:31:44.587Z,1015.88
2023-01-26T05:32:44.515Z,1015.84
2023-01-26T05:33:44.470Z,1015.95
2023-01-26T05:34:44.423Z,1016.03
2023-01-26T05:35:44.376Z,1016.34
2023-01-26T05:36:44.320Z,1016.52
2023-01-26T05:37:44.277Z,1016.59
2023-01-26T05:38:44.234Z,1016.15
2023-01-26T05:39:44.184Z,1016.07
2023-01-26T05:40:44.132Z,1015.91
2023-01-26T05:41:44.097Z,1016.17
2023-01-26T05:42:44.080Z,1016.07
2023-01-26T05:43:43.992Z,1016.34
2023-01-26T05:44:43.948Z,1016.51
2023-01-26T05:45:43.951Z,1016.21
2023-01-26T05:46:43.851Z,1016.59
2023-01-26T05:47:43.827Z,1016.17
2023-01-26T05:48:43.766Z,1016.05
2023-01-26T05:49:43.715Z,1015.94
2023-01-26T05:50:43.679Z,1015.88
2023-01-26T05:51:43.615Z,1015.84
2023-01-26T05:52:43.579Z,1016.19
2023-01-26T05:53:43.530Z,1015.91
2023-01-26T05:54:43.486Z,1016.34
2023-01-26T05:55:43.449Z,1016.54
2023-01-26T05:56:43.387Z,1016.53
2023-01-26T05:57:43.355Z,1016.65
2023-01-26T05:58:43.306Z,1016.32
2023-01-26T05:59:43.262Z,1016.10
2023-01-26T06:00:43.208Z,1016.21
2023-01-26T06:01:43.158Z,1016.33
2023-01-26T06:02:43.101Z,1016.58
2023-01-26T06:03:43.055Z,1016.35
2023-01-26T06:04:43.021Z,1016.30
2023-01-26T06:05:42.963Z,1016.23
2023-01-26T06:06:42.918Z,1016.30
2023-01-26T06:07:42.869Z,1016.26
2023-01-26T06:08:42.825Z,1016.17
2023-01-26T06:09:42.793Z,1016.09
2023-01-26T06:10:42.735Z,1016.07
2023-01-26T06:11:42.700Z,1016.04
2023-01-26T06:12:42.646Z,1015.99
2023-01-26T06:13:42.593Z,1016.02
2023-01-26T06:14:42.548Z,1016.36
2023-01-26T06:15:42.503Z,1016.49
2023-01-26T06:16:42.496Z,1016.62
2023-01-26T06:17:42.402Z,1016.36
2023-01-26T06:18:42.355Z,1016.27
2023-01-26T06:19:42.314Z,1016.20
2023-01-26T06:20:44.203Z,1016.15
2023-01-26T06:21:42.223Z,1016.08
2023-01-26T06:22:42.182Z,1016.11
2023-01-26T06:23:42.119Z,1016.44
2023-01-26T06:24:42.097Z,1016.28
2023-01-26T06:25:42.044Z,1016.23
2023-01-26T06:26:41.981Z,1016.55
2023-01-26T06:27:42.031Z,1016.23
2023-01-26T06:28:41.884Z,1016.72
2023-01-26T06:29:41.841Z,1016.80
2023-01-26T06:30:41.899Z,1016.86
2023-01-26T06:31:41.802Z,1016.88
2023-01-26T06:32:41.704Z,1016.54
2023-01-26T06:33:41.657Z,1016.73
2023-01-26T06:34:41.604Z,1016.35
2023-01-26T06:35:41.557Z,1016.71
2023-01-26T06:36:41.528Z,1016.78
2023-01-26T06:37:41.465Z,1016.63
2023-01-26T06:38:41.413Z,1016.37
2023-01-26T06:39:41.372Z,1016.56
2023-01-26T06:40:41.331Z,1016.25
2023-01-26T06:41:41.278Z,1016.14
2023-01-26T06:42:41.241Z,1016.09
2023-01-26T06:43:41.182Z,1016.04
2023-01-26T06:44:41.150Z,1016.16
2023-01-26T06:45:41.091Z,1016.23
2023-01-26T06:46:41.038Z,1016.41
2023-01-26T06:47:40.994Z,1016.15
2023-01-26T06:48:40.962Z,1016.21
2023-01-26T06:49:40.902Z,1016.25
2023-01-26T06:50:40.856Z,1016.23
2023-01-26T06:51:40.814Z,1016.27
2023-01-26T06:52:42.235Z,1016.25
2023-01-26T06:53:40.715Z,1016.14
2023-01-26T06:54:40.680Z,1016.08
2023-01-26T06:55:40.619Z,1016.04
2023-01-26T06:56:40.574Z,1016.05
2023-01-26T06:57:40.526Z,1016.11
2023-01-26T06:58:40.491Z,1016.07
2023-01-26T06:59:40.440Z,1016.02
2023-01-26T07:00:40.402Z,1016.03
2023-01-26T07:01:40.351Z,1016.02
2023-01-26T07:02:40.300Z,1016.39
2023-01-26T07:03:40.245Z,1016.64
2023-01-26T07:04:40.196Z,1016.31
2023-01-26T07:05:40.164Z,1016.28
2023-01-26T07:06:40.136Z,1016.43
2023-01-26T07:07:40.056Z,1016.30
2023-01-26T07:08:40.007Z,1016.30
2023-01-26T07:09:39.973Z,1016.55
2023-01-26T07:10:39.921Z,1016.80
2023-01-26T07:11:39.870Z,1016.90
2023-01-26T07:12:39.840Z,1016.93
2023-01-26T07:13:39.779Z,1016.98
2023-01-26T07:14:39.735Z,1017.01
2023-01-26T07:15:39.683Z,1016.59
2023-01-26T07:16:39.676Z,1016.64
2023-01-26T07:17:39.609Z,1016.95
2023-01-26T07:18:39.557Z,1016.54
2023-01-26T07:19:39.496Z,1016.85
2023-01-26T07:20:39.459Z,1016.90
2023-01-26T07:21:39.404Z,1016.48
2023-01-26T07:22:39.368Z,1016.86
2023-01-26T07:23:39.422Z,1016.90
2023-01-26T07:24:39.258Z,1016.95
2023-01-26T07:25:39.221Z,1016.96
2023-01-26T07:26:39.166Z,1016.61
2023-01-26T07:27:39.122Z,1016.45
2023-01-26T07:28:40.277Z,1016.49
2023-01-26T07:29:39.032Z,1016.67
2023-01-26T07:30:39.028Z,1016.40
2023-01-26T07:31:38.943Z,1016.37
2023-01-26T07:32:38.883Z,1016.50
2023-01-26T07:33:38.845Z,1016.23
2023-01-26T07:34:38.804Z,1016.19
2023-01-26T07:35:38.751Z,1016.28
2023-01-26T07:36:38.700Z,1016.18
2023-01-26T07:37:38.661Z,1016.31
2023-01-26T07:38:38.622Z,1016.26
2023-01-26T07:39:38.560Z,1016.33
2023-01-26T07:40:38.521Z,1016.29
2023-01-26T07:41:38.470Z,1016.77
2023-01-26T07:42:38.421Z,1016.73
2023-01-26T07:43:38.468Z,1016.43
2023-01-26T07:44:38.325Z,1016.36
2023-01-26T07:45:38.299Z,1016.34
2023-01-26T07:46:38.317Z,1016.39
2023-01-26T07:47:38.186Z,1016.44
2023-01-26T07:48:38.137Z,1016.47
2023-01-26T07:49:38.133Z,1016.44
2023-01-26T07:50:38.076Z,1016.46
2023-01-26T07:51:38.014Z,1016.45
2023-01-26T07:52:37.949Z,1016.69
2023-01-26T07:53:37.910Z,1016.53
2023-01-26T07:54:37.858Z,1016.85
2023-01-26T07:55:37.812Z,1016.94
2023-01-26T07:56:37.772Z,1016.97
2023-01-26T07:57:37.728Z,1017.02
2023-01-26T07:58:37.671Z,1016.68
2023-01-26T07:59:37.640Z,1017.05
2023-01-26T08:00:37.590Z,1017.09
2023-01-26T08:01:37.556Z,1016.82
2023-01-26T08:02:37.529Z,1016.80
2023-01-26T08:03:37.440Z,1017.11
2023-01-26T08:04:37.411Z,1017.12
2023-01-26T08:05:37.365Z,1017.13
2023-01-26T08:06:37.297Z,1016.71
2023-01-26T08:07:37.259Z,1016.60
2023-01-26T08:08:37.206Z,1016.65
2023-01-26T08:09:37.161Z,1016.89
2023-01-26T08:10:37.121Z,1016.56
2023-01-26T08:11:37.073Z,1016.60
2023-01-26T08:12:40.144Z,1016.93
2023-01-26T08:13:36.978Z,1016.98
2023-01-26T08:14:46.502Z,1016.58
2023-01-26T08:15:36.881Z,1017.00
2023-01-26T08:16:36.912Z,1017.06
2023-01-26T08:17:36.790Z,1017.12
2023-01-26T08:18:36.739Z,1017.14
2023-01-26T08:19:37.576Z,1016.74
2023-01-26T08:20:36.651Z,1016.66
2023-01-26T08:21:36.614Z,1016.71
2023-01-26T08:22:36.556Z,1016.63
2023-01-26T08:23:36.511Z,1016.66
2023-01-26T08:24:36.460Z,1016.62
2023-01-26T08:25:36.418Z,1016.60
2023-01-26T08:26:36.376Z,1016.72
2023-01-26T08:27:36.340Z,1016.69
2023-01-26T08:28:36.288Z,1016.73
2023-01-26T08:29:36.233Z,1017.08
2023-01-26T08:30:36.183Z,1017.04
2023-01-26T08:31:36.171Z,1016.80
2023-01-26T08:32:36.088Z,1016.72
2023-01-26T08:33:36.060Z,1016.69
2023-01-26T08:34:36.007Z,1017.16
2023-01-26T08:35:35.956Z,1017.21
2023-01-26T08:36:35.904Z,1016.83
2023-01-26T08:37:35.865Z,1016.77
2023-01-26T08:38:35.826Z,1016.77
2023-01-26T08:39:35.780Z,1016.77
2023-01-26T08:40:35.719Z,1017.19
2023-01-26T08:41:35.679Z,1017.27
2023-01-26T08:42:35.626Z,1017.33
2023-01-26T08:43:35.588Z,1017.37
2023-01-26T08:44:35.536Z,1017.38
2023-01-26T08:45:35.518Z,1017.39
2023-01-26T08:46:35.438Z,1017.40
2023-01-26T08:47:35.408Z,1017.44
2023-01-26T08:48:35.343Z,1017.12
2023-01-26T08:49:35.308Z,1017.38
2023-01-26T08:50:35.260Z,1017.42
2023-01-26T08:51:35.222Z,1017.05
2023-01-26T08:52:35.165Z,1016.94
2023-01-26T08:53:35.120Z,1017.32
2023-01-26T08:54:35.079Z,1017.07
2023-01-26T08:55:35.037Z,1017.36
2023-01-26T08:56:34.992Z,1017.33
2023-01-26T08:57:34.939Z,1017.42
2023-01-26T08:58:34.908Z,1017.40
2023-01-26T08:59:34.842Z,1017.42
2023-01-26T09:00:34.805Z,1017.47
2023-01-26T09:01:34.754Z,1017.44
2023-01-26T09:02:34.868Z,1017.06
2023-01-26T09:03:34.668Z,1017.43
2023-01-26T09:04:34.623Z,1017.33
2023-01-26T09:05:34.579Z,1017.48
2023-01-26T09:06:34.526Z,1017.17
2023-01-26T09:07:34.479Z,1017.22
2023-01-26T09:08:34.423Z,1017.44
2023-01-26T09:09:34.402Z,1017.05
2023-01-26T09:10:34.333Z,1017.39
2023-01-26T09:11:34.304Z,1017.06
2023-01-26T09:12:34.244Z,1017.34
2023-01-26T09:13:34.196Z,1016.98
2023-01-26T09:14:34.147Z,1017.14
2023-01-26T09:15:34.107Z,1017.04
2023-01-26T09:16:34.191Z,1017.28
2023-01-26T09:17:34.022Z,1017.12
2023-01-26T09:18:34.008Z,1017.33
2023-01-26T09:19:33.925Z,1017.14
2023-01-26T09:20:33.876Z,1017.43
2023-01-26T09:21:33.845Z,1017.15
2023-01-26T09:22:33.798Z,1017.07
2023-01-26T09:23:33.745Z,1017.42
2023-01-26T09:24:33.688Z,1017.12
2023-01-26T09:25:33.649Z,1017.11
2023-01-26T09:26:33.600Z,1017.05
2023-01-26T09:27:33.586Z,1017.00
2023-01-26T09:28:33.528Z,1017.39
2023-01-26T09:29:33.466Z,1017.31
2023-01-26T09:30:33.568Z,1017.38
2023-01-26T09:31:33.538Z,1017.32
2023-01-26T09:32:33.321Z,1017.42
2023-01-26T09:33:33.274Z,1017.46
2023-01-26T09:34:33.238Z,1017.47
2023-01-26T09:35:33.252Z,1017.47
2023-01-26T09:36:33.154Z,1017.13
2023-01-26T09:37:33.097Z,1017.11
2023-01-26T09:38:33.054Z,1017.54
2023-01-26T09:39:33.032Z,1017.19
2023-01-26T09:40:32.967Z,1017.12
2023-01-26T09:41:32.922Z,1017.13
2023-01-26T09:42:32.859Z,1017.45
2023-01-26T09:43:32.816Z,1017.06
2023-01-26T09:44:32.769Z,1017.03
2023-01-26T09:45:32.729Z,1016.99
2023-01-26T09:46:32.810Z,1016.98
2023-01-26T09:47:32.640Z,1016.95
2023-01-26T09:48:32.592Z,1016.89
2023-01-26T09:49:32.549Z,1016.93
2023-01-26T09:50:32.518Z,1016.91
2023-01-26T09:51:32.468Z,1016.88
2023-01-26T09:52:32.407Z,1016.92
2023-01-26T09:53:32.363Z,1017.01
2023-01-26T09:54:32.316Z,1017.28
2023-01-26T09:55:32.287Z,1017.12
2023-01-26T09:56:32.218Z,1017.47
2023-01-26T09:57:32.195Z,1017.43
2023-01-26T09:58:32.126Z,1017.14
2023-01-26T09:59:32.133Z,1017.20
2023-01-26T10:00:32.032Z,1017.13
2023-01-26T10:01:32.038Z,1017.52
2023-01-26T10:02:31.986Z,1017.35
2023-01-26T10:03:31.909Z,1017.14
2023-01-26T10:04:31.855Z,1017.08
2023-01-26T10:05:31.826Z,1016.98
2023-01-26T10:06:31.770Z,1017.31
2023-01-26T10:07:31.731Z,1017.39
2023-01-26T10:08:31.663Z,1016.99
2023-01-26T10:09:31.631Z,1016.98
2023-01-26T10:10:31.608Z,1016.94
2023-01-26T10:11:31.534Z,1016.88
2023-01-26T10:12:31.509Z,1017.23
2023-01-26T10:13:31.445Z,1017.31
2023-01-26T10:14:31.402Z,1016.98
2023-01-26T10:15:31.378Z,1016.95
2023-01-26T10:16:31.306Z,1016.91
2023-01-26T10:17:31.270Z,1017.21
2023-01-26T10:18:31.230Z,1017.30
2023-01-26T10:19:31.164Z,1017.33
2023-01-26T10:20:31.164Z,1017.38
2023-01-26T10:21:31.073Z,1017.13
2023-01-26T10:22:31.026Z,1017.40
2023-01-26T10:23:30.990Z,1017.40
2023-01-26T10:24:30.938Z,1017.38
2023-01-26T10:25:30.903Z,1017.47
2023-01-26T10:26:30.861Z,1017.43
2023-01-26T10:27:30.808Z,1017.43
2023-01-26T10:28:30.757Z,1017.44
2023-01-26T10:29:30.708Z,1017.09
2023-01-26T10:30:30.685Z,1017.40
2023-01-26T10:31:30.686Z,1017.44
2023-01-26T10:32:30.572Z,1017.46
2023-01-26T10:33:30.522Z,1017.46
2023-01-26T10:34:30.496Z,1017.22
2023-01-26T10:35:30.431Z,1017.39
2023-01-26T10:36:30.398Z,1017.41
2023-01-26T10:37:30.343Z,1017.21
2023-01-26T10:38:30.307Z,1017.00
2023-01-26T10:39:30.247Z,1016.90
2023-01-26T10:40:30.214Z,1016.81
2023-01-26T10:41:30.177Z,1016.85
2023-01-26T10:42:30.112Z,1016.85
2023-01-26T10:43:30.070Z,1016.76
2023-01-26T10:44:30.017Z,1016.72
2023-01-26T10:45:29.981Z,1016.73
2023-01-26T10:46:29.955Z,1017.13
2023-01-26T10:47:39.147Z,1017.13
2023-01-26T10:48:29.839Z,1017.23
2023-01-26T10:49:29.790Z,1017.22
2023-01-26T10:50:29.767Z,1017.24
2023-01-26T10:51:29.726Z,1017.23
2023-01-26T10:52:29.653Z,1017.13
2023-01-26T10:53:29.632Z,1016.94
2023-01-26T10:54:29.570Z,1017.20
2023-01-26T10:55:29.516Z,1016.82
2023-01-26T10:56:29.476Z,1016.90
2023-01-26T10:57:29.479Z,1016.74
2023-01-26T10:58:29.382Z,1016.76
2023-01-26T10:59:29.331Z,1016.72
2023-01-26T11:00:29.299Z,1016.79
2023-01-26T11:01:29.263Z,1017.12
2023-01-26T11:02:29.283Z,1017.15
2023-01-26T11:03:29.175Z,1017.17
2023-01-26T11:04:29.109Z,1016.78
2023-01-26T11:05:29.080Z,1016.80
2023-01-26T11:06:29.045Z,1016.80
2023-01-26T11:07:28.968Z,1017.13
2023-01-26T11:08:28.929Z,1017.20
2023-01-26T11:09:28.909Z,1017.21
2023-01-26T11:10:28.835Z,1017.22
2023-01-26T11:11:28.802Z,1016.90
2023-01-26T11:12:28.743Z,1016.81
2023-01-26T11:13:28.697Z,1016.84
2023-01-26T11:14:28.671Z,1016.79
2023-01-26T11:15:28.616Z,1016.76
2023-01-26T11:16:28.580Z,1017.08
2023-01-26T11:17:28.513Z,1016.79
2023-01-26T11:18:28.470Z,1016.78
2023-01-26T11:19:28.419Z,1017.09
2023-01-26T11:20:28.399Z,1016.84
2023-01-26T11:21:28.331Z,1017.08
2023-01-26T11:22:28.288Z,1017.05
2023-01-26T11:23:28.239Z,1016.67
2023-01-26T11:24:28.217Z,1016.94
2023-01-26T11:25:28.175Z,1017.03
2023-01-26T11:26:28.102Z,1017.06
2023-01-26T11:27:28.059Z,1016.70
2023-01-26T11:28:28.015Z,1016.77
2023-01-26T11:29:27.973Z,1016.89
2023-01-26T11:30:27.934Z,1016.68
2023-01-26T11:31:27.908Z,1016.63
2023-01-26T11:32:27.832Z,1016.58
2023-01-26T11:33:27.810Z,1016.59
2023-01-26T11:34:27.740Z,1016.57
2023-01-26T11:35:27.692Z,1016.51
2023-01-26T11:36:27.651Z,1016.49
2023-01-26T11:37:27.619Z,1016.46
2023-01-26T11:38:27.572Z,1016.48
2023-01-26T11:39:27.526Z,1016.49
2023-01-26T11:40:27.473Z,1016.49
2023-01-26T11:41:27.443Z,1016.47
2023-01-26T11:42:27.379Z,1016.46
2023-01-26T11:43:27.355Z,1016.48
2023-01-26T11:44:27.291Z,1016.70
2023-01-26T11:45:27.320Z,1016.93
2023-01-26T11:46:27.215Z,1016.99
2023-01-26T11:47:27.147Z,1017.03
2023-01-26T11:48:27.127Z,1017.11
2023-01-26T11:49:27.058Z,1017.12
2023-01-26T11:50:27.026Z,1016.76
2023-01-26T11:51:27.019Z,1017.05
2023-01-26T11:52:26.924Z,1016.76
2023-01-26T11:53:26.909Z,1016.67
2023-01-26T11:54:26.838Z,1016.63
2023-01-26T11:55:26.795Z,1016.64
2023-01-26T11:56:26.757Z,1016.66
2023-01-26T11:57:26.696Z,1016.61
2023-01-26T11:58:26.649Z,1016.61
2023-01-26T11:59:26.606Z,1016.56
2023-01-26T12:00:30.455Z,1016.53
2023-01-26T12:01:26.531Z,1016.65
2023-01-26T12:02:27.940Z,1016.48
2023-01-26T12:03:26.433Z,1016.76
2023-01-26T12:04:26.384Z,1016.47